ePrivacy and GPDR Cookie Consent by Cookie Consent
EmailTwitter


Observations de surface / Québec / CYSC

Régions: Québec | Canada | États-Unis | Europe | France | UK | Ailleurs
Station
Affichage
Infos & localisation pour CYSC | Aide pour décoder les METARs

Observations prises le 2023-01-28 à 10H58 UTC à SHERBROOKE, QB (CYSC)

Etat du ciel: quelques nuages.

Obstacle(s) à la visibilité: faible neige.

Température: -2.0 Celsius

Point de rosée: -6.0 Celsius

Humidité relative: 74%

Facteur vent -5.

Vents: Sud à 9 km/h ou 5 noeuds.

Pression au niveau moyen de la mer: 101.41 kilopascals.

Calage altimétrique: 101.29 kilopascals ou 29.91 pouces de mercure.

Visibilité horizontale: 9.00 milles terrestres ou 14.40 kilomètres.

Observation METAR:

CYSC 281058Z AUTO 18005KT 9SM -SN FEW031 M02/M06 A2991 RMK SLP141=